createdAt,value
2022-09-18T00:00:58.951Z,6.80
2022-09-18T00:03:46.847Z,6.80
2022-09-18T00:06:35.504Z,6.80
2022-09-18T00:09:24.202Z,6.80
2022-09-18T00:12:11.394Z,6.70
2022-09-18T00:14:58.353Z,6.70
2022-09-18T00:17:45.201Z,6.70
2022-09-18T00:20:34.135Z,6.70
2022-09-18T00:23:20.974Z,6.60
2022-09-18T00:26:11.238Z,6.60
2022-09-18T00:28:59.491Z,6.50
2022-09-18T00:31:47.248Z,6.60
2022-09-18T00:34:34.666Z,6.50
2022-09-18T00:37:21.650Z,6.50
2022-09-18T00:40:09.292Z,6.50
2022-09-18T00:42:58.995Z,6.40
2022-09-18T00:45:56.790Z,6.40
2022-09-18T00:48:48.771Z,6.40
2022-09-18T00:51:40.114Z,6.40
2022-09-18T00:54:30.161Z,6.40
2022-09-18T00:57:20.762Z,6.40
2022-09-18T01:00:12.432Z,6.40
2022-09-18T01:03:01.385Z,6.30
2022-09-18T01:05:56.829Z,6.20
2022-09-18T01:08:56.691Z,6.20
2022-09-18T01:11:51.189Z,6.10
2022-09-18T01:14:43.692Z,6.00
2022-09-18T01:17:40.171Z,6.00
2022-09-18T01:21:05.516Z,5.90
2022-09-18T01:24:34.247Z,5.90
2022-09-18T01:27:31.346Z,5.90
2022-09-18T01:30:19.995Z,5.80
2022-09-18T01:33:11.975Z,5.90
2022-09-18T01:36:04.017Z,5.90
2022-09-18T01:38:54.854Z,5.90
2022-09-18T01:41:50.744Z,5.80
2022-09-18T01:44:38.919Z,5.80
2022-09-18T01:47:33.669Z,5.80
2022-09-18T01:50:21.409Z,5.80
2022-09-18T01:53:12.600Z,5.80
2022-09-18T01:56:05.635Z,5.80
2022-09-18T01:58:55.090Z,5.80
2022-09-18T02:01:45.489Z,5.80
2022-09-18T02:04:38.040Z,5.70
2022-09-18T02:07:31.833Z,5.70
2022-09-18T02:10:20.661Z,5.80
2022-09-18T02:13:10.034Z,5.70
2022-09-18T02:16:03.832Z,5.80
2022-09-18T02:18:54.184Z,5.80
2022-09-18T02:21:44.122Z,5.80
2022-09-18T02:24:37.212Z,5.80
2022-09-18T02:27:27.246Z,5.80
2022-09-18T02:30:14.712Z,5.80
2022-09-18T02:33:02.549Z,5.80
2022-09-18T02:35:59.581Z,5.80
2022-09-18T02:38:55.380Z,5.80
2022-09-18T02:41:48.512Z,5.80
2022-09-18T02:44:44.576Z,5.80
2022-09-18T02:47:42.569Z,5.90
2022-09-18T02:50:35.666Z,5.90
2022-09-18T02:53:28.514Z,5.90
2022-09-18T02:56:24.944Z,6.00
2022-09-18T02:59:16.573Z,6.00
2022-09-18T03:02:04.299Z,6.00
2022-09-18T03:04:51.417Z,6.00
2022-09-18T03:07:38.851Z,6.00
2022-09-18T03:10:26.122Z,6.10
2022-09-18T03:13:14.834Z,6.10
2022-09-18T03:16:01.991Z,6.00
2022-09-18T03:18:48.938Z,6.00
2022-09-18T03:21:35.769Z,6.00
2022-09-18T03:24:25.329Z,6.00
2022-09-18T03:27:12.154Z,6.00
2022-09-18T03:30:00.319Z,6.10
2022-09-18T03:32:47.716Z,6.00
2022-09-18T03:35:34.563Z,6.10
2022-09-18T03:38:21.448Z,6.00
2022-09-18T03:41:08.465Z,6.00
2022-09-18T03:43:55.614Z,6.10
2022-09-18T03:46:44.045Z,6.10
2022-09-18T03:49:30.835Z,6.00
2022-09-18T03:52:17.665Z,6.00
2022-09-18T03:55:04.821Z,6.00
2022-09-18T03:57:53.746Z,6.00
2022-09-18T04:00:40.461Z,6.00
2022-09-18T04:03:28.409Z,6.00
2022-09-18T04:06:15.322Z,6.00
2022-09-18T04:09:01.986Z,6.00
2022-09-18T04:11:49.036Z,5.90
2022-09-18T04:14:35.854Z,6.00
2022-09-18T04:17:22.623Z,6.00
2022-09-18T04:20:11.577Z,6.00
2022-09-18T04:22:59.920Z,6.00
2022-09-18T04:25:47.053Z,6.00
2022-09-18T04:28:34.049Z,6.00
2022-09-18T04:31:20.951Z,6.10
2022-09-18T04:34:07.888Z,6.10
2022-09-18T04:36:56.153Z,6.10
2022-09-18T04:39:42.662Z,6.00
2022-09-18T04:42:29.253Z,6.00
2022-09-18T04:45:16.487Z,6.00
2022-09-18T04:48:03.592Z,6.00
2022-09-18T04:50:50.772Z,6.00
2022-09-18T04:53:39.554Z,6.00
2022-09-18T04:56:26.553Z,6.00
2022-09-18T04:59:13.204Z,6.00
2022-09-18T05:02:01.271Z,6.00
2022-09-18T05:04:48.198Z,6.00
2022-09-18T05:07:35.309Z,5.90
2022-09-18T05:10:24.140Z,5.90
2022-09-18T05:13:11.533Z,5.90
2022-09-18T05:15:58.642Z,5.90
2022-09-18T05:18:45.617Z,6.00
2022-09-18T05:21:32.553Z,6.00
2022-09-18T05:24:19.626Z,6.00
2022-09-18T05:27:08.804Z,6.00
2022-09-18T05:29:56.016Z,6.10
2022-09-18T05:32:43.594Z,6.10
2022-09-18T05:35:32.347Z,6.20
2022-09-18T05:38:19.227Z,6.30
2022-09-18T05:41:06.831Z,6.20
2022-09-18T05:43:55.543Z,6.20
2022-09-18T05:46:42.561Z,6.30
2022-09-18T05:49:29.749Z,6.40
2022-09-18T05:52:16.409Z,6.40
2022-09-18T05:55:03.475Z,6.50
2022-09-18T05:57:54.074Z,6.60
2022-09-18T06:00:44.743Z,6.60
2022-09-18T06:03:32.031Z,6.70
2022-09-18T06:06:19.456Z,6.70
2022-09-18T06:09:06.829Z,6.70
2022-09-18T06:11:53.500Z,6.80
2022-09-18T06:14:40.544Z,6.90
2022-09-18T06:17:28.829Z,7.00
2022-09-18T06:20:15.441Z,7.00
2022-09-18T06:23:03.205Z,7.10
2022-09-18T06:25:50.145Z,7.10
2022-09-18T06:28:36.786Z,7.10
2022-09-18T06:31:23.804Z,7.20
2022-09-18T06:34:12.404Z,7.30
2022-09-18T06:36:59.337Z,7.40
2022-09-18T06:39:46.886Z,7.50
2022-09-18T06:42:33.660Z,7.70
2022-09-18T06:45:20.440Z,8.10
2022-09-18T06:48:08.034Z,9.20
2022-09-18T06:50:58.073Z,10.30
2022-09-18T06:53:45.306Z,11.20
2022-09-18T06:56:32.346Z,11.80
2022-09-18T06:59:18.962Z,12.70
2022-09-18T07:02:06.544Z,13.20
2022-09-18T07:04:53.912Z,13.60
2022-09-18T07:07:41.955Z,14.10
2022-09-18T07:10:29.048Z,14.30
2022-09-18T07:13:16.128Z,14.50
2022-09-18T07:16:03.136Z,14.80
2022-09-18T07:18:50.485Z,14.80
2022-09-18T07:21:38.270Z,14.50
2022-09-18T07:24:26.468Z,14.60
2022-09-18T07:27:13.781Z,15.00
2022-09-18T07:30:00.445Z,14.80
2022-09-18T07:32:47.780Z,15.00
2022-09-18T07:35:35.931Z,16.00
2022-09-18T07:38:22.866Z,15.70
2022-09-18T07:41:11.026Z,15.40
2022-09-18T07:43:58.064Z,15.00
2022-09-18T07:46:44.809Z,15.30
2022-09-18T07:49:32.926Z,16.00
2022-09-18T07:52:19.920Z,16.10
2022-09-18T07:55:07.636Z,16.20
2022-09-18T07:57:58.874Z,16.40
2022-09-18T08:00:45.769Z,16.70
2022-09-18T08:03:34.328Z,17.10
2022-09-18T08:06:23.844Z,17.30
2022-09-18T08:09:11.072Z,17.80
2022-09-18T08:11:57.926Z,17.90
2022-09-18T08:14:46.173Z,17.70
2022-09-18T08:17:33.062Z,17.60
2022-09-18T08:20:19.769Z,17.50
2022-09-18T08:23:09.320Z,17.50
2022-09-18T08:25:56.344Z,17.40
2022-09-18T08:28:43.689Z,16.90
2022-09-18T08:31:32.289Z,16.50
2022-09-18T08:34:19.376Z,15.90
2022-09-18T08:37:06.268Z,15.90
2022-09-18T08:39:52.746Z,15.80
2022-09-18T08:42:45.556Z,15.80
2022-09-18T08:45:43.436Z,16.00
2022-09-18T08:48:36.791Z,16.60
2022-09-18T08:51:30.725Z,16.80
2022-09-18T08:54:27.630Z,17.30
2022-09-18T08:57:20.725Z,17.90
2022-09-18T09:00:23.910Z,17.90
2022-09-18T09:03:23.598Z,17.50
2022-09-18T09:06:26.249Z,18.00
2022-09-18T09:09:33.176Z,17.60
2022-09-18T09:12:31.572Z,17.50
2022-09-18T09:15:32.596Z,17.70
2022-09-18T09:18:24.249Z,17.70
2022-09-18T09:21:21.932Z,17.90
2022-09-18T09:24:22.037Z,17.50
2022-09-18T09:27:19.459Z,17.50
2022-09-18T09:30:14.214Z,18.20
2022-09-18T09:33:08.214Z,17.40
2022-09-18T09:35:59.019Z,18.10
2022-09-18T09:38:52.279Z,18.50
2022-09-18T09:41:43.303Z,18.50
2022-09-18T09:44:38.393Z,18.50
2022-09-18T09:47:33.349Z,19.00
2022-09-18T09:50:34.136Z,19.00
2022-09-18T09:53:24.408Z,19.00
2022-09-18T09:56:19.338Z,18.70
2022-09-18T09:59:18.485Z,18.70
2022-09-18T10:02:29.831Z,18.60
2022-09-18T10:05:25.149Z,18.70
2022-09-18T10:08:19.628Z,18.00
2022-09-18T10:11:11.291Z,17.50
2022-09-18T10:14:03.143Z,16.90
2022-09-18T10:16:54.462Z,16.70
2022-09-18T10:19:43.791Z,16.50
2022-09-18T10:22:31.093Z,15.80
2022-09-18T10:25:27.737Z,15.00
2022-09-18T10:28:14.919Z,14.70
2022-09-18T10:31:05.599Z,14.80
2022-09-18T10:33:53.765Z,14.30
2022-09-18T10:36:44.264Z,14.60
2022-09-18T10:39:33.139Z,14.30
2022-09-18T10:42:23.454Z,14.20
2022-09-18T10:45:24.826Z,14.00
2022-09-18T10:48:25.329Z,13.60
2022-09-18T10:51:20.514Z,13.60
2022-09-18T10:54:17.428Z,13.40
2022-09-18T10:57:26.742Z,13.20
2022-09-18T11:00:41.582Z,13.10
2022-09-18T11:03:43.122Z,13.10
2022-09-18T11:06:32.645Z,13.10
2022-09-18T11:09:22.547Z,13.20
2022-09-18T11:12:19.159Z,13.00
2022-09-18T11:15:16.590Z,13.10
2022-09-18T11:18:06.980Z,13.30
2022-09-18T11:20:57.762Z,13.20
2022-09-18T11:23:45.195Z,13.10
2022-09-18T11:26:33.310Z,13.10
2022-09-18T11:29:25.540Z,13.00
2022-09-18T11:32:20.575Z,13.40
2022-09-18T11:35:16.886Z,13.70
2022-09-18T11:38:08.110Z,13.70
2022-09-18T11:40:57.607Z,13.80
2022-09-18T11:43:45.374Z,13.70
2022-09-18T11:46:44.239Z,13.80
2022-09-18T11:49:34.956Z,14.10
2022-09-18T11:52:25.656Z,14.30
2022-09-18T11:55:23.861Z,14.70
2022-09-18T11:58:16.902Z,14.50
2022-09-18T12:01:14.431Z,14.30
2022-09-18T12:04:08.837Z,14.70
2022-09-18T12:07:01.809Z,15.50
2022-09-18T12:09:54.665Z,15.50
2022-09-18T12:12:47.483Z,14.90
2022-09-18T12:15:37.795Z,14.60
2022-09-18T12:18:30.529Z,14.60
2022-09-18T12:21:21.324Z,14.50
2022-09-18T12:24:13.799Z,13.60
2022-09-18T12:27:14.207Z,13.70
2022-09-18T12:30:09.969Z,14.30
2022-09-18T12:33:09.717Z,14.40
2022-09-18T12:36:15.942Z,14.60
2022-09-18T12:39:18.553Z,14.50
2022-09-18T12:42:18.727Z,15.00
2022-09-18T12:45:42.295Z,15.40
2022-09-18T12:48:54.409Z,15.00
2022-09-18T12:51:46.619Z,14.90
2022-09-18T12:55:15.739Z,15.20
2022-09-18T12:58:14.810Z,15.00
2022-09-18T13:01:09.833Z,14.60
2022-09-18T13:04:05.930Z,14.50
2022-09-18T13:06:59.227Z,14.40
2022-09-18T13:09:54.614Z,13.90
2022-09-18T13:12:43.865Z,14.00
2022-09-18T13:15:35.129Z,14.10
2022-09-18T13:18:33.367Z,14.20
2022-09-18T13:21:26.736Z,14.10
2022-09-18T13:24:18.236Z,14.30
2022-09-18T13:27:10.423Z,14.10
2022-09-18T13:29:59.768Z,14.30
2022-09-18T13:32:46.854Z,14.40
2022-09-18T13:35:36.169Z,14.40
2022-09-18T13:38:26.164Z,14.50
2022-09-18T13:41:13.560Z,14.60
2022-09-18T13:44:03.840Z,14.70
2022-09-18T13:46:51.772Z,14.60
2022-09-18T13:49:48.253Z,14.80
2022-09-18T13:52:46.078Z,14.80
2022-09-18T13:55:48.464Z,14.70
2022-09-18T13:59:01.762Z,14.40
2022-09-18T14:02:20.975Z,14.30
2022-09-18T14:05:30.692Z,14.20
2022-09-18T14:08:40.410Z,14.40
2022-09-18T14:11:27.089Z,13.90
2022-09-18T14:14:14.730Z,14.20
2022-09-18T14:17:12.716Z,14.30
2022-09-18T14:20:07.918Z,14.30
2022-09-18T14:22:54.824Z,14.20
2022-09-18T14:25:49.737Z,14.10
2022-09-18T14:28:38.013Z,13.80
2022-09-18T14:31:29.534Z,13.70
2022-09-18T14:34:22.381Z,13.50
2022-09-18T14:37:24.900Z,13.40
2022-09-18T14:40:20.120Z,13.40
2022-09-18T14:43:18.220Z,13.10
2022-09-18T14:46:05.026Z,12.90
2022-09-18T14:48:52.911Z,13.00
2022-09-18T14:52:03.067Z,13.00
2022-09-18T14:54:51.325Z,13.00
2022-09-18T14:57:44.884Z,12.80
2022-09-18T15:00:35.414Z,12.70
2022-09-18T15:03:25.820Z,12.80
2022-09-18T15:06:21.079Z,12.90
2022-09-18T15:09:11.110Z,12.90
2022-09-18T15:12:02.603Z,12.80
2022-09-18T15:14:50.687Z,12.40
2022-09-18T15:17:38.744Z,12.50
2022-09-18T15:20:28.516Z,12.70
2022-09-18T15:23:20.141Z,12.50
2022-09-18T15:26:10.211Z,12.80
2022-09-18T15:29:00.216Z,12.50
2022-09-18T15:31:47.497Z,12.40
2022-09-18T15:34:41.134Z,12.20
2022-09-18T15:37:29.527Z,12.00
2022-09-18T15:40:19.840Z,12.00
2022-09-18T15:43:15.375Z,11.80
2022-09-18T15:46:05.924Z,11.90
2022-09-18T15:48:53.130Z,11.90
2022-09-18T15:51:41.536Z,11.80
2022-09-18T15:54:29.394Z,11.80
2022-09-18T15:57:16.888Z,11.50
2022-09-18T16:00:04.725Z,11.60
2022-09-18T16:02:54.127Z,11.60
2022-09-18T16:05:41.096Z,11.50
2022-09-18T16:08:30.861Z,11.20
2022-09-18T16:11:40.553Z,11.10
2022-09-18T16:14:46.144Z,11.10
2022-09-18T16:17:41.470Z,11.00
2022-09-18T16:20:31.937Z,10.90
2022-09-18T16:23:24.184Z,10.90
2022-09-18T16:26:14.429Z,10.80
2022-09-18T16:29:03.547Z,10.80
2022-09-18T16:31:50.509Z,10.80
2022-09-18T16:34:37.742Z,10.80
2022-09-18T16:37:24.644Z,10.80
2022-09-18T16:40:24.193Z,10.70
2022-09-18T16:43:15.192Z,10.60
2022-09-18T16:46:01.802Z,10.40
2022-09-18T16:48:49.014Z,10.50
2022-09-18T16:51:35.808Z,10.30
2022-09-18T16:54:22.564Z,10.20
2022-09-18T16:57:12.660Z,10.20
2022-09-18T17:00:05.014Z,10.30
2022-09-18T17:02:52.254Z,10.20
2022-09-18T17:05:39.619Z,10.10
2022-09-18T17:08:26.627Z,10.00
2022-09-18T17:11:13.699Z,9.90
2022-09-18T17:14:00.911Z,9.90
2022-09-18T17:16:49.619Z,9.90
2022-09-18T17:19:36.897Z,9.80
2022-09-18T17:22:23.972Z,9.80
2022-09-18T17:25:11.512Z,9.70
2022-09-18T17:27:58.355Z,9.70
2022-09-18T17:30:45.807Z,9.70
2022-09-18T17:33:34.103Z,9.60
2022-09-18T17:36:21.719Z,9.70
2022-09-18T17:39:09.260Z,9.70
2022-09-18T17:41:56.618Z,9.70
2022-09-18T17:44:43.720Z,9.60
2022-09-18T17:47:30.332Z,9.60
2022-09-18T17:50:20.352Z,9.70
2022-09-18T17:53:06.975Z,9.70
2022-09-18T17:55:55.479Z,9.70
2022-09-18T17:58:44.128Z,9.70
2022-09-18T18:01:31.568Z,9.60
2022-09-18T18:04:18.706Z,9.60
2022-09-18T18:07:07.691Z,9.70
2022-09-18T18:09:54.561Z,9.60
2022-09-18T18:12:41.144Z,9.60
2022-09-18T18:15:29.145Z,9.70
2022-09-18T18:18:16.289Z,9.70
2022-09-18T18:21:03.005Z,9.50
2022-09-18T18:23:56.115Z,9.50
2022-09-18T18:26:43.925Z,9.50
2022-09-18T18:29:30.867Z,9.50
2022-09-18T18:32:18.005Z,9.50
2022-09-18T18:35:05.112Z,9.50
2022-09-18T18:37:52.372Z,9.60
2022-09-18T18:40:40.855Z,9.60
2022-09-18T18:43:28.927Z,9.50
2022-09-18T18:46:15.946Z,9.60
2022-09-18T18:49:05.847Z,9.60
2022-09-18T18:51:53.017Z,9.60
2022-09-18T18:54:39.901Z,9.60
2022-09-18T18:57:28.220Z,9.70
2022-09-18T19:00:15.273Z,9.50
2022-09-18T19:03:02.422Z,9.50
2022-09-18T19:05:49.419Z,9.60
2022-09-18T19:08:36.757Z,9.60
2022-09-18T19:11:23.880Z,9.50
2022-09-18T19:14:16.754Z,9.50
2022-09-18T19:17:03.547Z,9.50
2022-09-18T19:19:50.244Z,9.50
2022-09-18T19:22:36.969Z,9.50
2022-09-18T19:25:25.419Z,9.50
2022-09-18T19:28:15.453Z,9.50
2022-09-18T19:31:05.617Z,9.50
2022-09-18T19:33:52.956Z,9.50
2022-09-18T19:36:40.255Z,9.50
2022-09-18T19:39:26.998Z,9.50
2022-09-18T19:42:17.225Z,9.50
2022-09-18T19:45:05.874Z,9.50
2022-09-18T19:47:54.613Z,9.50
2022-09-18T19:50:41.663Z,9.50
2022-09-18T19:53:28.545Z,9.50
2022-09-18T19:56:33.410Z,9.50
2022-09-18T19:59:23.229Z,9.50
2022-09-18T20:02:13.225Z,9.40
2022-09-18T20:05:02.158Z,9.50
2022-09-18T20:07:50.983Z,9.50
2022-09-18T20:10:40.389Z,9.50
2022-09-18T20:13:27.676Z,9.60
2022-09-18T20:16:14.904Z,9.50
2022-09-18T20:19:01.756Z,9.60
2022-09-18T20:21:50.415Z,9.70
2022-09-18T20:24:37.329Z,9.70
2022-09-18T20:27:25.306Z,9.70
2022-09-18T20:30:13.508Z,9.70
2022-09-18T20:33:01.173Z,9.70
2022-09-18T20:35:55.931Z,9.60
2022-09-18T20:38:44.266Z,9.70
2022-09-18T20:41:32.250Z,9.70
2022-09-18T20:44:19.197Z,9.70
2022-09-18T20:47:07.015Z,9.60
2022-09-18T20:49:54.350Z,9.70
2022-09-18T20:52:43.011Z,9.60
2022-09-18T20:55:31.006Z,9.70
2022-09-18T20:58:17.890Z,9.70
2022-09-18T21:01:11.095Z,9.70
2022-09-18T21:03:59.942Z,9.70
2022-09-18T21:06:48.735Z,9.60
2022-09-18T21:09:35.791Z,9.70
2022-09-18T21:12:23.777Z,9.60
2022-09-18T21:15:13.683Z,9.70
2022-09-18T21:18:01.496Z,9.70
2022-09-18T21:20:48.578Z,9.70
2022-09-18T21:23:54.283Z,9.70
2022-09-18T21:26:42.814Z,9.60
2022-09-18T21:29:31.168Z,9.60
2022-09-18T21:32:18.317Z,9.60
2022-09-18T21:35:05.454Z,9.60
2022-09-18T21:37:55.221Z,9.60
2022-09-18T21:40:41.763Z,9.60
2022-09-18T21:43:28.952Z,9.60
2022-09-18T21:46:19.190Z,9.60
2022-09-18T21:49:07.673Z,9.60
2022-09-18T21:51:56.930Z,9.60
2022-09-18T21:54:43.869Z,9.60
2022-09-18T21:57:30.676Z,9.60
2022-09-18T22:00:17.739Z,9.60
2022-09-18T22:03:06.124Z,9.60
2022-09-18T22:05:53.212Z,9.60
2022-09-18T22:08:41.181Z,9.60
2022-09-18T22:11:30.410Z,9.60
2022-09-18T22:14:19.901Z,9.60
2022-09-18T22:17:08.664Z,9.60
2022-09-18T22:19:57.254Z,9.50
2022-09-18T22:22:43.910Z,9.50
2022-09-18T22:25:31.962Z,9.50
2022-09-18T22:28:18.921Z,9.50
2022-09-18T22:31:06.206Z,9.40
2022-09-18T22:33:56.283Z,9.40
2022-09-18T22:36:44.925Z,9.40
2022-09-18T22:39:31.974Z,9.40
2022-09-18T22:42:18.714Z,9.40
2022-09-18T22:45:08.414Z,9.40
2022-09-18T22:47:54.996Z,9.40
2022-09-18T22:50:43.453Z,9.30
2022-09-18T22:53:31.730Z,9.30
2022-09-18T22:56:20.518Z,9.30
2022-09-18T22:59:07.643Z,9.20
2022-09-18T23:01:56.553Z,9.20
2022-09-18T23:04:43.394Z,9.10
2022-09-18T23:07:30.212Z,9.10
2022-09-18T23:10:18.680Z,9.00
2022-09-18T23:13:05.895Z,9.00
2022-09-18T23:15:52.852Z,8.90
2022-09-18T23:18:40.074Z,8.90
2022-09-18T23:21:28.769Z,8.80
2022-09-18T23:24:16.153Z,8.80
2022-09-18T23:27:04.481Z,8.80
2022-09-18T23:29:51.539Z,8.80
2022-09-18T23:32:38.420Z,8.70
2022-09-18T23:35:25.412Z,8.70
2022-09-18T23:38:12.154Z,8.70
2022-09-18T23:41:01.105Z,8.60
2022-09-18T23:43:50.974Z,8.60
2022-09-18T23:46:38.117Z,8.60
2022-09-18T23:49:24.924Z,8.60
2022-09-18T23:52:11.849Z,8.50
2022-09-18T23:54:58.691Z,8.50
2022-09-18T23:57:46.441Z,8.40
